sensor_id;sensor_type;location;lat;lon;timestamp;P1;durP1;ratioP1;P2;durP2;ratioP2
10410;SDS011;5251;52.112;8.606;2023-08-08T00:00:36;2.70;;;2.35;;
10410;SDS011;5251;52.112;8.606;2023-08-08T00:03:02;5.38;;;2.83;;
10410;SDS011;5251;52.112;8.606;2023-08-08T00:05:27;3.30;;;2.85;;
10410;SDS011;5251;52.112;8.606;2023-08-08T00:07:53;3.75;;;2.72;;
10410;SDS011;5251;52.112;8.606;2023-08-08T00:10:18;3.17;;;2.60;;
10410;SDS011;5251;52.112;8.606;2023-08-08T00:12:44;3.78;;;2.90;;
10410;SDS011;5251;52.112;8.606;2023-08-08T00:15:10;5.55;;;3.10;;
10410;SDS011;5251;52.112;8.606;2023-08-08T00:17:35;4.80;;;3.00;;
10410;SDS011;5251;52.112;8.606;2023-08-08T00:20:01;3.47;;;2.60;;
10410;SDS011;5251;52.112;8.606;2023-08-08T00:22:26;4.10;;;2.45;;
10410;SDS011;5251;52.112;8.606;2023-08-08T00:24:52;4.45;;;2.83;;
10410;SDS011;5251;52.112;8.606;2023-08-08T00:27:18;4.10;;;2.92;;
10410;SDS011;5251;52.112;8.606;2023-08-08T00:29:43;2.95;;;2.60;;
10410;SDS011;5251;52.112;8.606;2023-08-08T00:32:09;4.40;;;2.83;;
10410;SDS011;5251;52.112;8.606;2023-08-08T00:34:34;3.65;;;3.08;;
10410;SDS011;5251;52.112;8.606;2023-08-08T00:37:00;5.25;;;2.90;;
10410;SDS011;5251;52.112;8.606;2023-08-08T00:39:25;3.50;;;2.88;;
10410;SDS011;5251;52.112;8.606;2023-08-08T00:41:51;4.82;;;3.63;;
10410;SDS011;5251;52.112;8.606;2023-08-08T00:44:16;4.90;;;3.50;;
10410;SDS011;5251;52.112;8.606;2023-08-08T00:46:42;4.05;;;3.22;;
10410;SDS011;5251;52.112;8.606;2023-08-08T00:49:08;4.70;;;3.40;;
10410;SDS011;5251;52.112;8.606;2023-08-08T00:51:33;4.45;;;3.20;;
10410;SDS011;5251;52.112;8.606;2023-08-08T00:53:59;6.07;;;3.33;;
10410;SDS011;5251;52.112;8.606;2023-08-08T00:56:25;7.88;;;3.35;;
10410;SDS011;5251;52.112;8.606;2023-08-08T00:58:51;4.82;;;3.08;;
10410;SDS011;5251;52.112;8.606;2023-08-08T01:01:17;4.80;;;3.55;;
10410;SDS011;5251;52.112;8.606;2023-08-08T01:03:44;3.83;;;3.30;;
10410;SDS011;5251;52.112;8.606;2023-08-08T01:09:29;4.18;;;3.58;;
10410;SDS011;5251;52.112;8.606;2023-08-08T01:11:59;5.80;;;4.10;;
10410;SDS011;5251;52.112;8.606;2023-08-08T01:14:26;6.93;;;4.20;;
10410;SDS011;5251;52.112;8.606;2023-08-08T01:16:54;9.15;;;4.30;;
10410;SDS011;5251;52.112;8.606;2023-08-08T01:19:23;5.80;;;4.28;;
10410;SDS011;5251;52.112;8.606;2023-08-08T01:21:53;5.75;;;4.22;;
10410;SDS011;5251;52.112;8.606;2023-08-08T01:24:23;5.63;;;3.85;;
10410;SDS011;5251;52.112;8.606;2023-08-08T01:26:52;6.40;;;4.10;;
10410;SDS011;5251;52.112;8.606;2023-08-08T01:29:18;5.00;;;3.60;;
10410;SDS011;5251;52.112;8.606;2023-08-08T01:31:44;5.93;;;4.25;;
10410;SDS011;5251;52.112;8.606;2023-08-08T01:34:09;7.55;;;4.07;;
10410;SDS011;5251;52.112;8.606;2023-08-08T01:36:36;6.65;;;3.90;;
10410;SDS011;5251;52.112;8.606;2023-08-08T01:39:07;4.25;;;3.40;;
10410;SDS011;5251;52.112;8.606;2023-08-08T01:41:38;6.03;;;3.80;;
10410;SDS011;5251;52.112;8.606;2023-08-08T01:44:05;4.18;;;3.45;;
10410;SDS011;5251;52.112;8.606;2023-08-08T01:46:32;4.40;;;3.45;;
10410;SDS011;5251;52.112;8.606;2023-08-08T01:48:58;4.65;;;3.05;;
10410;SDS011;5251;52.112;8.606;2023-08-08T01:51:24;5.50;;;3.75;;
10410;SDS011;5251;52.112;8.606;2023-08-08T01:53:51;5.18;;;3.42;;
10410;SDS011;5251;52.112;8.606;2023-08-08T01:56:17;4.10;;;3.30;;
10410;SDS011;5251;52.112;8.606;2023-08-08T01:58:42;3.78;;;3.35;;
10410;SDS011;5251;52.112;8.606;2023-08-08T02:01:08;4.10;;;3.00;;
10410;SDS011;5251;52.112;8.606;2023-08-08T02:03:33;4.68;;;3.20;;
10410;SDS011;5251;52.112;8.606;2023-08-08T02:05:59;4.80;;;3.10;;
10410;SDS011;5251;52.112;8.606;2023-08-08T02:08:25;7.07;;;3.30;;
10410;SDS011;5251;52.112;8.606;2023-08-08T02:10:50;3.33;;;2.75;;
10410;SDS011;5251;52.112;8.606;2023-08-08T02:13:16;2.97;;;2.67;;
10410;SDS011;5251;52.112;8.606;2023-08-08T02:15:41;5.70;;;3.10;;
10410;SDS011;5251;52.112;8.606;2023-08-08T02:18:07;3.10;;;2.60;;
10410;SDS011;5251;52.112;8.606;2023-08-08T02:20:34;3.42;;;2.35;;
10410;SDS011;5251;52.112;8.606;2023-08-08T02:22:59;3.20;;;2.90;;
10410;SDS011;5251;52.112;8.606;2023-08-08T02:25:25;3.95;;;2.83;;
10410;SDS011;5251;52.112;8.606;2023-08-08T02:27:50;2.35;;;2.15;;
10410;SDS011;5251;52.112;8.606;2023-08-08T02:30:16;2.92;;;2.40;;
10410;SDS011;5251;52.112;8.606;2023-08-08T02:32:42;4.07;;;2.67;;
10410;SDS011;5251;52.112;8.606;2023-08-08T02:35:07;2.70;;;2.40;;
10410;SDS011;5251;52.112;8.606;2023-08-08T02:37:33;2.95;;;2.40;;
10410;SDS011;5251;52.112;8.606;2023-08-08T02:39:59;3.05;;;2.50;;
10410;SDS011;5251;52.112;8.606;2023-08-08T02:42:24;3.05;;;2.55;;
10410;SDS011;5251;52.112;8.606;2023-08-08T02:44:50;3.65;;;2.70;;
10410;SDS011;5251;52.112;8.606;2023-08-08T02:47:16;4.85;;;2.58;;
10410;SDS011;5251;52.112;8.606;2023-08-08T02:49:41;3.75;;;2.50;;
10410;SDS011;5251;52.112;8.606;2023-08-08T02:52:07;3.10;;;2.35;;
10410;SDS011;5251;52.112;8.606;2023-08-08T02:54:32;3.40;;;1.90;;
10410;SDS011;5251;52.112;8.606;2023-08-08T02:56:58;2.53;;;1.90;;
10410;SDS011;5251;52.112;8.606;2023-08-08T02:59:23;2.38;;;2.08;;
10410;SDS011;5251;52.112;8.606;2023-08-08T03:01:50;3.70;;;2.03;;
10410;SDS011;5251;52.112;8.606;2023-08-08T03:04:15;2.67;;;2.05;;
10410;SDS011;5251;52.112;8.606;2023-08-08T03:06:41;2.50;;;2.20;;
10410;SDS011;5251;52.112;8.606;2023-08-08T03:09:07;3.17;;;2.35;;
10410;SDS011;5251;52.112;8.606;2023-08-08T03:11:33;3.15;;;2.15;;
10410;SDS011;5251;52.112;8.606;2023-08-08T03:13:58;3.95;;;2.33;;
10410;SDS011;5251;52.112;8.606;2023-08-08T03:16:24;3.55;;;2.28;;
10410;SDS011;5251;52.112;8.606;2023-08-08T03:18:49;2.58;;;2.10;;
10410;SDS011;5251;52.112;8.606;2023-08-08T03:21:15;3.28;;;2.42;;
10410;SDS011;5251;52.112;8.606;2023-08-08T03:23:40;2.85;;;2.22;;
10410;SDS011;5251;52.112;8.606;2023-08-08T03:26:06;2.45;;;2.17;;
10410;SDS011;5251;52.112;8.606;2023-08-08T03:28:32;4.03;;;2.75;;
10410;SDS011;5251;52.112;8.606;2023-08-08T03:30:57;2.53;;;2.33;;
10410;SDS011;5251;52.112;8.606;2023-08-08T03:33:23;3.17;;;2.50;;
10410;SDS011;5251;52.112;8.606;2023-08-08T03:35:48;3.50;;;2.75;;
10410;SDS011;5251;52.112;8.606;2023-08-08T03:38:14;3.75;;;2.63;;
10410;SDS011;5251;52.112;8.606;2023-08-08T03:40:39;5.75;;;3.13;;
10410;SDS011;5251;52.112;8.606;2023-08-08T03:43:05;3.20;;;2.90;;
10410;SDS011;5251;52.112;8.606;2023-08-08T03:45:30;4.03;;;2.88;;
10410;SDS011;5251;52.112;8.606;2023-08-08T03:47:56;4.07;;;3.00;;
10410;SDS011;5251;52.112;8.606;2023-08-08T03:50:22;4.03;;;2.90;;
10410;SDS011;5251;52.112;8.606;2023-08-08T03:52:47;3.65;;;3.15;;
10410;SDS011;5251;52.112;8.606;2023-08-08T03:55:13;4.55;;;3.03;;
10410;SDS011;5251;52.112;8.606;2023-08-08T03:57:39;5.47;;;3.25;;
10410;SDS011;5251;52.112;8.606;2023-08-08T04:00:04;4.05;;;2.72;;
10410;SDS011;5251;52.112;8.606;2023-08-08T04:02:33;4.07;;;3.17;;
10410;SDS011;5251;52.112;8.606;2023-08-08T04:04:58;3.70;;;3.40;;
10410;SDS011;5251;52.112;8.606;2023-08-08T04:07:24;4.57;;;3.42;;
10410;SDS011;5251;52.112;8.606;2023-08-08T04:09:49;7.55;;;3.53;;
10410;SDS011;5251;52.112;8.606;2023-08-08T04:12:15;4.38;;;3.80;;
10410;SDS011;5251;52.112;8.606;2023-08-08T04:14:41;4.18;;;3.42;;
10410;SDS011;5251;52.112;8.606;2023-08-08T04:17:06;4.43;;;3.90;;
10410;SDS011;5251;52.112;8.606;2023-08-08T04:19:32;4.75;;;3.70;;
10410;SDS011;5251;52.112;8.606;2023-08-08T04:21:57;4.63;;;3.97;;
10410;SDS011;5251;52.112;8.606;2023-08-08T04:24:23;4.55;;;3.80;;
10410;SDS011;5251;52.112;8.606;2023-08-08T04:26:48;4.03;;;3.60;;
10410;SDS011;5251;52.112;8.606;2023-08-08T04:29:14;4.25;;;3.67;;
10410;SDS011;5251;52.112;8.606;2023-08-08T04:31:39;5.78;;;4.22;;
10410;SDS011;5251;52.112;8.606;2023-08-08T04:34:05;5.93;;;4.40;;
10410;SDS011;5251;52.112;8.606;2023-08-08T04:36:31;4.90;;;4.03;;
10410;SDS011;5251;52.112;8.606;2023-08-08T04:38:56;5.07;;;4.22;;
10410;SDS011;5251;52.112;8.606;2023-08-08T04:41:22;5.05;;;4.55;;
10410;SDS011;5251;52.112;8.606;2023-08-08T04:43:47;5.70;;;4.57;;
10410;SDS011;5251;52.112;8.606;2023-08-08T04:46:13;9.45;;;4.57;;
10410;SDS011;5251;52.112;8.606;2023-08-08T04:48:39;5.18;;;4.43;;
10410;SDS011;5251;52.112;8.606;2023-08-08T04:51:05;5.80;;;4.80;;
10410;SDS011;5251;52.112;8.606;2023-08-08T04:53:30;4.57;;;4.05;;
10410;SDS011;5251;52.112;8.606;2023-08-08T04:55:56;6.85;;;4.25;;
10410;SDS011;5251;52.112;8.606;2023-08-08T04:58:22;5.07;;;4.20;;
10410;SDS011;5251;52.112;8.606;2023-08-08T05:00:47;4.75;;;4.32;;
10410;SDS011;5251;52.112;8.606;2023-08-08T05:03:13;5.75;;;4.75;;
10410;SDS011;5251;52.112;8.606;2023-08-08T05:05:39;6.28;;;5.20;;
10410;SDS011;5251;52.112;8.606;2023-08-08T05:08:04;5.93;;;5.30;;
10410;SDS011;5251;52.112;8.606;2023-08-08T05:10:30;5.95;;;5.25;;
10410;SDS011;5251;52.112;8.606;2023-08-08T05:12:56;6.57;;;5.20;;
10410;SDS011;5251;52.112;8.606;2023-08-08T05:15:22;6.40;;;4.78;;
10410;SDS011;5251;52.112;8.606;2023-08-08T05:17:48;6.05;;;5.15;;
10410;SDS011;5251;52.112;8.606;2023-08-08T05:20:13;6.18;;;4.90;;
10410;SDS011;5251;52.112;8.606;2023-08-08T05:22:39;6.53;;;5.10;;
10410;SDS011;5251;52.112;8.606;2023-08-08T05:25:07;6.82;;;4.60;;
10410;SDS011;5251;52.112;8.606;2023-08-08T05:27:33;6.50;;;4.80;;
10410;SDS011;5251;52.112;8.606;2023-08-08T05:29:59;6.40;;;4.88;;
10410;SDS011;5251;52.112;8.606;2023-08-08T05:32:25;6.45;;;4.88;;
10410;SDS011;5251;52.112;8.606;2023-08-08T05:34:51;5.07;;;4.55;;
10410;SDS011;5251;52.112;8.606;2023-08-08T05:37:16;5.70;;;4.97;;
10410;SDS011;5251;52.112;8.606;2023-08-08T05:39:42;5.22;;;4.35;;
10410;SDS011;5251;52.112;8.606;2023-08-08T05:42:08;6.57;;;4.40;;
10410;SDS011;5251;52.112;8.606;2023-08-08T05:44:33;6.32;;;4.55;;
10410;SDS011;5251;52.112;8.606;2023-08-08T05:46:59;6.38;;;4.50;;
10410;SDS011;5251;52.112;8.606;2023-08-08T05:49:25;5.32;;;4.28;;
10410;SDS011;5251;52.112;8.606;2023-08-08T05:51:50;7.70;;;4.78;;
10410;SDS011;5251;52.112;8.606;2023-08-08T05:54:16;6.25;;;4.47;;
10410;SDS011;5251;52.112;8.606;2023-08-08T05:56:41;5.18;;;4.40;;
10410;SDS011;5251;52.112;8.606;2023-08-08T05:59:07;5.03;;;4.53;;
10410;SDS011;5251;52.112;8.606;2023-08-08T06:01:33;8.85;;;4.63;;
10410;SDS011;5251;52.112;8.606;2023-08-08T06:03:59;5.05;;;4.53;;
10410;SDS011;5251;52.112;8.606;2023-08-08T06:06:25;5.32;;;4.30;;
10410;SDS011;5251;52.112;8.606;2023-08-08T06:08:52;5.78;;;4.30;;
10410;SDS011;5251;52.112;8.606;2023-08-08T06:11:17;6.88;;;4.38;;
10410;SDS011;5251;52.112;8.606;2023-08-08T06:13:43;6.07;;;4.60;;
10410;SDS011;5251;52.112;8.606;2023-08-08T06:16:09;6.50;;;4.57;;
10410;SDS011;5251;52.112;8.606;2023-08-08T06:18:34;5.90;;;4.25;;
10410;SDS011;5251;52.112;8.606;2023-08-08T06:21:01;6.30;;;4.03;;
10410;SDS011;5251;52.112;8.606;2023-08-08T06:23:27;5.30;;;4.03;;
10410;SDS011;5251;52.112;8.606;2023-08-08T06:25:52;4.45;;;3.88;;
10410;SDS011;5251;52.112;8.606;2023-08-08T06:28:18;6.05;;;3.88;;
10410;SDS011;5251;52.112;8.606;2023-08-08T06:30:44;5.28;;;3.38;;
10410;SDS011;5251;52.112;8.606;2023-08-08T06:33:09;8.70;;;3.65;;
10410;SDS011;5251;52.112;8.606;2023-08-08T06:35:35;3.80;;;3.28;;
10410;SDS011;5251;52.112;8.606;2023-08-08T06:38:01;4.65;;;3.30;;
10410;SDS011;5251;52.112;8.606;2023-08-08T06:40:26;5.78;;;3.42;;
10410;SDS011;5251;52.112;8.606;2023-08-08T06:42:52;5.20;;;3.67;;
10410;SDS011;5251;52.112;8.606;2023-08-08T06:45:18;4.35;;;2.63;;
10410;SDS011;5251;52.112;8.606;2023-08-08T06:47:44;5.70;;;3.22;;
10410;SDS011;5251;52.112;8.606;2023-08-08T06:50:10;4.90;;;3.08;;
10410;SDS011;5251;52.112;8.606;2023-08-08T06:52:36;6.32;;;3.17;;
10410;SDS011;5251;52.112;8.606;2023-08-08T06:55:01;4.32;;;3.33;;
10410;SDS011;5251;52.112;8.606;2023-08-08T06:57:28;5.10;;;3.20;;
10410;SDS011;5251;52.112;8.606;2023-08-08T06:59:57;5.10;;;3.22;;
10410;SDS011;5251;52.112;8.606;2023-08-08T07:02:23;4.15;;;3.40;;
10410;SDS011;5251;52.112;8.606;2023-08-08T07:04:48;4.28;;;3.30;;
10410;SDS011;5251;52.112;8.606;2023-08-08T07:07:14;3.75;;;3.22;;
10410;SDS011;5251;52.112;8.606;2023-08-08T07:09:39;4.70;;;3.38;;
10410;SDS011;5251;52.112;8.606;2023-08-08T07:12:06;6.65;;;3.67;;
10410;SDS011;5251;52.112;8.606;2023-08-08T07:14:32;6.00;;;4.03;;
10410;SDS011;5251;52.112;8.606;2023-08-08T07:16:58;5.80;;;3.33;;
10410;SDS011;5251;52.112;8.606;2023-08-08T07:19:23;6.05;;;3.10;;
10410;SDS011;5251;52.112;8.606;2023-08-08T07:21:49;5.88;;;3.60;;
10410;SDS011;5251;52.112;8.606;2023-08-08T07:24:15;5.45;;;3.47;;
10410;SDS011;5251;52.112;8.606;2023-08-08T07:26:41;5.82;;;3.80;;
10410;SDS011;5251;52.112;8.606;2023-08-08T07:29:07;6.45;;;4.07;;
10410;SDS011;5251;52.112;8.606;2023-08-08T07:31:32;6.43;;;3.75;;
10410;SDS011;5251;52.112;8.606;2023-08-08T07:33:58;4.57;;;3.83;;
10410;SDS011;5251;52.112;8.606;2023-08-08T07:36:23;4.20;;;3.42;;
10410;SDS011;5251;52.112;8.606;2023-08-08T07:38:49;4.95;;;3.75;;
10410;SDS011;5251;52.112;8.606;2023-08-08T07:41:15;4.30;;;3.45;;
10410;SDS011;5251;52.112;8.606;2023-08-08T07:43:41;5.13;;;3.72;;
10410;SDS011;5251;52.112;8.606;2023-08-08T07:46:06;6.20;;;3.67;;
10410;SDS011;5251;52.112;8.606;2023-08-08T07:48:32;4.50;;;3.70;;
10410;SDS011;5251;52.112;8.606;2023-08-08T07:50:58;4.70;;;3.65;;
10410;SDS011;5251;52.112;8.606;2023-08-08T07:53:23;5.18;;;3.97;;
10410;SDS011;5251;52.112;8.606;2023-08-08T07:55:49;5.13;;;3.85;;
10410;SDS011;5251;52.112;8.606;2023-08-08T07:58:14;4.30;;;3.60;;
10410;SDS011;5251;52.112;8.606;2023-08-08T08:00:40;4.38;;;3.83;;
10410;SDS011;5251;52.112;8.606;2023-08-08T08:03:06;6.10;;;3.90;;
10410;SDS011;5251;52.112;8.606;2023-08-08T08:05:32;6.30;;;3.92;;
10410;SDS011;5251;52.112;8.606;2023-08-08T08:07:59;5.30;;;4.30;;
10410;SDS011;5251;52.112;8.606;2023-08-08T08:10:25;6.43;;;4.40;;
10410;SDS011;5251;52.112;8.606;2023-08-08T08:12:51;5.20;;;4.63;;
10410;SDS011;5251;52.112;8.606;2023-08-08T08:15:22;4.75;;;3.88;;
10410;SDS011;5251;52.112;8.606;2023-08-08T08:17:48;8.23;;;4.78;;
10410;SDS011;5251;52.112;8.606;2023-08-08T08:20:14;5.15;;;4.05;;
10410;SDS011;5251;52.112;8.606;2023-08-08T08:22:40;4.70;;;4.00;;
10410;SDS011;5251;52.112;8.606;2023-08-08T08:25:06;8.13;;;4.40;;
10410;SDS011;5251;52.112;8.606;2023-08-08T08:27:34;5.75;;;4.65;;
10410;SDS011;5251;52.112;8.606;2023-08-08T08:30:00;5.15;;;4.50;;
10410;SDS011;5251;52.112;8.606;2023-08-08T08:32:26;6.40;;;5.03;;
10410;SDS011;5251;52.112;8.606;2023-08-08T08:34:51;5.60;;;4.57;;
10410;SDS011;5251;52.112;8.606;2023-08-08T08:37:17;8.65;;;5.25;;
10410;SDS011;5251;52.112;8.606;2023-08-08T08:39:42;7.20;;;4.60;;
10410;SDS011;5251;52.112;8.606;2023-08-08T08:42:08;5.43;;;4.93;;
10410;SDS011;5251;52.112;8.606;2023-08-08T08:44:38;5.90;;;4.80;;
10410;SDS011;5251;52.112;8.606;2023-08-08T08:47:07;7.63;;;5.63;;
10410;SDS011;5251;52.112;8.606;2023-08-08T08:49:37;6.18;;;5.57;;
10410;SDS011;5251;52.112;8.606;2023-08-08T08:52:03;7.25;;;6.22;;
10410;SDS011;5251;52.112;8.606;2023-08-08T08:54:32;8.15;;;5.68;;
10410;SDS011;5251;52.112;8.606;2023-08-08T08:56:58;7.07;;;5.28;;
10410;SDS011;5251;52.112;8.606;2023-08-08T08:59:24;5.00;;;4.38;;
10410;SDS011;5251;52.112;8.606;2023-08-08T09:01:50;5.35;;;4.15;;
10410;SDS011;5251;52.112;8.606;2023-08-08T09:04:17;5.90;;;3.80;;
10410;SDS011;5251;52.112;8.606;2023-08-08T09:06:46;5.63;;;3.40;;
10410;SDS011;5251;52.112;8.606;2023-08-08T09:09:12;3.40;;;2.85;;
10410;SDS011;5251;52.112;8.606;2023-08-08T09:11:40;4.90;;;2.70;;
10410;SDS011;5251;52.112;8.606;2023-08-08T09:14:20;3.10;;;2.72;;
10410;SDS011;5251;52.112;8.606;2023-08-08T09:16:47;5.63;;;3.90;;
10410;SDS011;5251;52.112;8.606;2023-08-08T09:19:14;4.65;;;3.65;;
10410;SDS011;5251;52.112;8.606;2023-08-08T09:21:41;4.53;;;3.35;;
10410;SDS011;5251;52.112;8.606;2023-08-08T09:24:06;3.72;;;3.22;;
10410;SDS011;5251;52.112;8.606;2023-08-08T09:26:32;8.18;;;3.92;;
10410;SDS011;5251;52.112;8.606;2023-08-08T09:28:59;4.75;;;3.78;;
10410;SDS011;5251;52.112;8.606;2023-08-08T09:31:26;6.07;;;3.40;;
10410;SDS011;5251;52.112;8.606;2023-08-08T09:33:53;5.00;;;3.70;;
10410;SDS011;5251;52.112;8.606;2023-08-08T09:36:21;3.42;;;3.13;;
10410;SDS011;5251;52.112;8.606;2023-08-08T09:38:48;4.45;;;3.13;;
10410;SDS011;5251;52.112;8.606;2023-08-08T09:41:14;4.65;;;2.78;;
10410;SDS011;5251;52.112;8.606;2023-08-08T09:43:42;3.83;;;3.45;;
10410;SDS011;5251;52.112;8.606;2023-08-08T09:46:09;5.22;;;3.08;;
10410;SDS011;5251;52.112;8.606;2023-08-08T09:48:35;7.07;;;3.25;;
10410;SDS011;5251;52.112;8.606;2023-08-08T09:51:03;4.60;;;3.40;;
10410;SDS011;5251;52.112;8.606;2023-08-08T09:53:31;4.82;;;3.00;;
10410;SDS011;5251;52.112;8.606;2023-08-08T09:55:57;4.00;;;2.80;;
10410;SDS011;5251;52.112;8.606;2023-08-08T09:58:23;3.75;;;2.95;;
10410;SDS011;5251;52.112;8.606;2023-08-08T10:00:49;5.95;;;3.08;;
10410;SDS011;5251;52.112;8.606;2023-08-08T10:03:18;3.95;;;2.38;;
10410;SDS011;5251;52.112;8.606;2023-08-08T10:05:44;3.35;;;2.17;;
10410;SDS011;5251;52.112;8.606;2023-08-08T10:08:10;3.35;;;2.00;;
10410;SDS011;5251;52.112;8.606;2023-08-08T10:10:36;3.33;;;2.17;;
10410;SDS011;5251;52.112;8.606;2023-08-08T10:13:03;4.53;;;2.50;;
10410;SDS011;5251;52.112;8.606;2023-08-08T10:15:30;3.80;;;2.22;;
10410;SDS011;5251;52.112;8.606;2023-08-08T10:17:56;4.60;;;2.20;;
10410;SDS011;5251;52.112;8.606;2023-08-08T10:20:26;3.42;;;2.55;;
10410;SDS011;5251;52.112;8.606;2023-08-08T10:22:52;3.90;;;2.30;;
10410;SDS011;5251;52.112;8.606;2023-08-08T10:28:08;3.13;;;2.53;;
10410;SDS011;5251;52.112;8.606;2023-08-08T10:30:45;5.75;;;2.50;;
10410;SDS011;5251;52.112;8.606;2023-08-08T10:33:19;4.40;;;2.10;;
10410;SDS011;5251;52.112;8.606;2023-08-08T10:38:21;3.63;;;1.70;;
10410;SDS011;5251;52.112;8.606;2023-08-08T10:40:53;2.92;;;1.80;;
10410;SDS011;5251;52.112;8.606;2023-08-08T10:43:27;3.33;;;1.83;;
10410;SDS011;5251;52.112;8.606;2023-08-08T10:45:56;5.70;;;2.00;;
10410;SDS011;5251;52.112;8.606;2023-08-08T10:48:24;3.58;;;1.77;;
10410;SDS011;5251;52.112;8.606;2023-08-08T10:50:51;5.10;;;2.17;;
10410;SDS011;5251;52.112;8.606;2023-08-08T10:53:22;2.30;;;1.50;;
10410;SDS011;5251;52.112;8.606;2023-08-08T10:55:56;3.78;;;1.83;;
10410;SDS011;5251;52.112;8.606;2023-08-08T10:58:42;1.95;;;1.75;;
10410;SDS011;5251;52.112;8.606;2023-08-08T11:01:13;3.05;;;1.88;;
10410;SDS011;5251;52.112;8.606;2023-08-08T11:03:40;2.58;;;1.70;;
10410;SDS011;5251;52.112;8.606;2023-08-08T11:06:08;1.92;;;1.58;;
10410;SDS011;5251;52.112;8.606;2023-08-08T11:08:36;3.88;;;1.77;;
10410;SDS011;5251;52.112;8.606;2023-08-08T11:11:03;2.65;;;1.80;;
10410;SDS011;5251;52.112;8.606;2023-08-08T11:13:30;2.78;;;1.58;;
10410;SDS011;5251;52.112;8.606;2023-08-08T11:15:55;2.63;;;1.60;;
10410;SDS011;5251;52.112;8.606;2023-08-08T11:18:21;2.55;;;1.30;;
10410;SDS011;5251;52.112;8.606;2023-08-08T11:20:47;2.35;;;1.40;;
10410;SDS011;5251;52.112;8.606;2023-08-08T11:23:14;2.17;;;1.38;;
10410;SDS011;5251;52.112;8.606;2023-08-08T11:25:41;2.88;;;1.40;;
10410;SDS011;5251;52.112;8.606;2023-08-08T11:28:08;2.83;;;1.33;;
10410;SDS011;5251;52.112;8.606;2023-08-08T11:30:36;3.58;;;1.45;;
10410;SDS011;5251;52.112;8.606;2023-08-08T11:33:03;3.05;;;1.35;;
10410;SDS011;5251;52.112;8.606;2023-08-08T11:35:28;2.30;;;1.42;;
10410;SDS011;5251;52.112;8.606;2023-08-08T11:37:55;2.50;;;1.88;;
10410;SDS011;5251;52.112;8.606;2023-08-08T11:40:23;2.30;;;2.10;;
10410;SDS011;5251;52.112;8.606;2023-08-08T11:42:51;3.90;;;1.83;;
10410;SDS011;5251;52.112;8.606;2023-08-08T11:45:17;3.15;;;1.40;;
10410;SDS011;5251;52.112;8.606;2023-08-08T11:47:43;1.55;;;1.30;;
10410;SDS011;5251;52.112;8.606;2023-08-08T11:50:09;2.75;;;1.35;;
10410;SDS011;5251;52.112;8.606;2023-08-08T11:52:42;1.55;;;1.02;;
10410;SDS011;5251;52.112;8.606;2023-08-08T11:55:10;1.85;;;1.45;;
10410;SDS011;5251;52.112;8.606;2023-08-08T11:57:37;1.40;;;1.30;;
10410;SDS011;5251;52.112;8.606;2023-08-08T12:00:07;2.85;;;1.70;;
10410;SDS011;5251;52.112;8.606;2023-08-08T12:02:38;2.65;;;1.35;;
10410;SDS011;5251;52.112;8.606;2023-08-08T12:05:08;1.90;;;1.10;;
10410;SDS011;5251;52.112;8.606;2023-08-08T12:07:39;4.20;;;1.10;;
10410;SDS011;5251;52.112;8.606;2023-08-08T12:10:12;4.93;;;1.35;;
10410;SDS011;5251;52.112;8.606;2023-08-08T12:12:45;2.20;;;1.30;;
10410;SDS011;5251;52.112;8.606;2023-08-08T12:15:11;3.58;;;1.90;;
10410;SDS011;5251;52.112;8.606;2023-08-08T12:17:37;2.50;;;1.30;;
10410;SDS011;5251;52.112;8.606;2023-08-08T12:20:04;1.55;;;1.20;;
10410;SDS011;5251;52.112;8.606;2023-08-08T12:22:31;1.73;;;1.23;;
10410;SDS011;5251;52.112;8.606;2023-08-08T12:24:57;1.20;;;1.10;;
10410;SDS011;5251;52.112;8.606;2023-08-08T12:27:24;2.45;;;1.20;;
10410;SDS011;5251;52.112;8.606;2023-08-08T12:29:50;2.97;;;1.23;;
10410;SDS011;5251;52.112;8.606;2023-08-08T12:32:17;1.50;;;1.10;;
10410;SDS011;5251;52.112;8.606;2023-08-08T12:34:50;1.85;;;1.30;;
10410;SDS011;5251;52.112;8.606;2023-08-08T12:37:16;6.45;;;1.50;;
10410;SDS011;5251;52.112;8.606;2023-08-08T12:39:42;4.35;;;1.05;;
10410;SDS011;5251;52.112;8.606;2023-08-08T12:42:08;1.70;;;1.10;;
10410;SDS011;5251;52.112;8.606;2023-08-08T12:44:33;2.05;;;1.20;;
10410;SDS011;5251;52.112;8.606;2023-08-08T12:46:59;1.55;;;1.00;;
10410;SDS011;5251;52.112;8.606;2023-08-08T12:49:25;1.73;;;1.05;;
10410;SDS011;5251;52.112;8.606;2023-08-08T12:51:50;1.42;;;1.10;;
10410;SDS011;5251;52.112;8.606;2023-08-08T12:54:17;3.55;;;1.38;;
10410;SDS011;5251;52.112;8.606;2023-08-08T12:56:42;1.25;;;1.02;;
10410;SDS011;5251;52.112;8.606;2023-08-08T12:59:09;1.42;;;1.10;;
10410;SDS011;5251;52.112;8.606;2023-08-08T13:01:34;1.80;;;1.02;;
10410;SDS011;5251;52.112;8.606;2023-08-08T13:04:00;1.95;;;0.90;;
10410;SDS011;5251;52.112;8.606;2023-08-08T13:06:26;1.80;;;1.10;;
10410;SDS011;5251;52.112;8.606;2023-08-08T13:08:52;1.77;;;1.20;;
10410;SDS011;5251;52.112;8.606;2023-08-08T13:11:17;2.78;;;1.10;;
10410;SDS011;5251;52.112;8.606;2023-08-08T13:13:43;2.72;;;1.00;;
10410;SDS011;5251;52.112;8.606;2023-08-08T13:16:09;0.70;;;0.70;;
10410;SDS011;5251;52.112;8.606;2023-08-08T13:18:35;1.15;;;0.80;;
10410;SDS011;5251;52.112;8.606;2023-08-08T13:21:01;1.30;;;0.80;;
10410;SDS011;5251;52.112;8.606;2023-08-08T13:23:27;0.88;;;0.82;;
10410;SDS011;5251;52.112;8.606;2023-08-08T13:25:53;2.88;;;0.82;;
10410;SDS011;5251;52.112;8.606;2023-08-08T13:28:19;2.55;;;0.82;;
10410;SDS011;5251;52.112;8.606;2023-08-08T13:30:45;2.38;;;0.82;;
10410;SDS011;5251;52.112;8.606;2023-08-08T13:33:10;2.03;;;0.88;;
10410;SDS011;5251;52.112;8.606;2023-08-08T13:35:36;1.30;;;0.75;;
10410;SDS011;5251;52.112;8.606;2023-08-08T13:38:01;2.33;;;1.02;;
10410;SDS011;5251;52.112;8.606;2023-08-08T13:40:27;1.30;;;0.90;;
10410;SDS011;5251;52.112;8.606;2023-08-08T13:42:53;1.83;;;0.90;;
10410;SDS011;5251;52.112;8.606;2023-08-08T13:45:18;1.17;;;0.85;;
10410;SDS011;5251;52.112;8.606;2023-08-08T13:47:45;1.85;;;0.77;;
10410;SDS011;5251;52.112;8.606;2023-08-08T13:50:11;3.38;;;1.00;;
10410;SDS011;5251;52.112;8.606;2023-08-08T13:52:38;0.88;;;0.60;;
10410;SDS011;5251;52.112;8.606;2023-08-08T13:55:04;0.73;;;0.70;;
10410;SDS011;5251;52.112;8.606;2023-08-08T13:57:30;6.53;;;1.95;;
10410;SDS011;5251;52.112;8.606;2023-08-08T13:59:56;3.80;;;1.70;;
10410;SDS011;5251;52.112;8.606;2023-08-08T14:02:22;6.40;;;1.80;;
10410;SDS011;5251;52.112;8.606;2023-08-08T14:04:48;1.73;;;1.20;;
10410;SDS011;5251;52.112;8.606;2023-08-08T14:07:14;2.15;;;1.42;;
10410;SDS011;5251;52.112;8.606;2023-08-08T14:09:39;2.03;;;1.00;;
10410;SDS011;5251;52.112;8.606;2023-08-08T14:12:05;1.40;;;0.90;;
10410;SDS011;5251;52.112;8.606;2023-08-08T14:14:31;1.83;;;1.23;;
10410;SDS011;5251;52.112;8.606;2023-08-08T14:16:57;1.30;;;0.90;;
10410;SDS011;5251;52.112;8.606;2023-08-08T14:19:23;2.08;;;0.95;;
10410;SDS011;5251;52.112;8.606;2023-08-08T14:21:49;2.67;;;0.82;;
10410;SDS011;5251;52.112;8.606;2023-08-08T14:24:14;2.33;;;1.27;;
10410;SDS011;5251;52.112;8.606;2023-08-08T14:26:40;2.38;;;0.90;;
10410;SDS011;5251;52.112;8.606;2023-08-08T14:29:06;0.82;;;0.77;;
10410;SDS011;5251;52.112;8.606;2023-08-08T14:31:31;1.02;;;0.88;;
10410;SDS011;5251;52.112;8.606;2023-08-08T14:33:57;0.93;;;0.77;;
10410;SDS011;5251;52.112;8.606;2023-08-08T14:36:23;0.95;;;0.93;;
10410;SDS011;5251;52.112;8.606;2023-08-08T14:38:48;0.95;;;0.80;;
10410;SDS011;5251;52.112;8.606;2023-08-08T14:41:14;1.00;;;0.82;;
10410;SDS011;5251;52.112;8.606;2023-08-08T14:43:39;0.95;;;0.77;;
10410;SDS011;5251;52.112;8.606;2023-08-08T14:46:05;0.73;;;0.60;;
10410;SDS011;5251;52.112;8.606;2023-08-08T14:48:31;1.08;;;0.73;;
10410;SDS011;5251;52.112;8.606;2023-08-08T14:50:57;1.15;;;0.80;;
10410;SDS011;5251;52.112;8.606;2023-08-08T14:53:24;2.20;;;0.93;;
10410;SDS011;5251;52.112;8.606;2023-08-08T14:55:50;2.45;;;0.95;;
10410;SDS011;5251;52.112;8.606;2023-08-08T14:58:16;0.95;;;0.80;;
10410;SDS011;5251;52.112;8.606;2023-08-08T15:00:41;1.13;;;1.00;;
10410;SDS011;5251;52.112;8.606;2023-08-08T15:03:07;1.30;;;1.02;;